Погода Ямовкана 2 недели

Ростовская область, Россия

24 мая-06 июня
  • 24мая
    Сегодня
    +7°
    +21°
    Ясно и безоблачно
    ВремяПогодаТемператураВлажностьДавлениеВетер, м/сВероятность осадков
    00:00Ясно и безоблачно+16°C58 %751 мм5.3 м/с2 %
    03:00Ясно и безоблачно+13°C66 %752 мм5.2 м/с2 %
    06:00Ясно и безоблачно+13°C43 %754 мм6.4 м/с2 %
    09:00Ясно и безоблачно+17°C31 %755 мм6.9 м/с2 %
    12:00Ясно и безоблачно+20°C26 %756 мм7.2 м/с2 %
    15:00Ясно и безоблачно+21°C18 %755 мм6.8 м/с2 %
    18:00Ясно и безоблачно+20°C20 %755 мм6.5 м/с2 %
    21:00Ясно и безоблачно+15°C23 %756 мм5.0 м/с2 %
  • 25мая
    Суббота
    +9°
    +22°
    Ясно и безоблачно
    ВремяПогодаТемператураВлажностьДавлениеВетер, м/сВероятность осадков
    00:00Ясно и безоблачно+11°C26 %757 мм4.5 м/с2 %
    03:00Ясно и безоблачно+8°C30 %757 мм4.1 м/с2 %
    06:00Ясно и безоблачно+9°C38 %758 мм4.4 м/с2 %
    09:00Ясно и безоблачно+16°C28 %758 мм5.5 м/с2 %
    12:00Ясно и безоблачно+20°C23 %757 мм5.6 м/с2 %
    15:00Ясно и безоблачно+21°C23 %756 мм5.3 м/с2 %
    18:00Ясно и безоблачно+21°C25 %755 мм5.2 м/с2 %
    21:00Ясно и безоблачно+15°C34 %755 мм3.4 м/с2 %
  • 26мая
    Воскресенье
    +9°
    +24°
    Практически безоблачно
    ВремяПогодаТемператураВлажностьДавлениеВетер, м/сВероятность осадков
    00:00Облачно с прояснениями+12°C36 %754 мм3.3 м/с2 %
    03:00Пасмурно, сплошная облачность+10°C37 %753 мм3.3 м/с2 %
    06:00Пасмурно, сплошная облачность+11°C41 %754 мм3.4 м/с2 %
    09:00Облачно с прояснениями+18°C34 %754 мм4.2 м/с2 %
    12:00Практически безоблачно+22°C25 %753 мм5.5 м/с2 %
    15:00Практически безоблачно+24°C21 %751 мм5.3 м/с2 %
    18:00Небольшая облачность+23°C24 %751 мм4.4 м/с2 %
    21:00Ясно и безоблачно+18°C30 %751 мм3.9 м/с2 %
  • 27мая
    Понедельник
    +12°
    +27°
    Ясно и безоблачно
    ВремяПогодаТемператураВлажностьДавлениеВетер, м/сВероятность осадков
    00:00Ясно и безоблачно+14°C39 %751 мм2.4 м/с2 %
    03:00Ясно и безоблачно+10°C51 %751 мм1.8 м/с2 %
    06:00Ясно и безоблачно+12°C49 %751 мм3.0 м/с2 %
    09:00Ясно и безоблачно+22°C28 %752 мм4.1 м/с2 %
    12:00Ясно и безоблачно+25°C24 %752 мм4.8 м/с2 %
    15:00Ясно и безоблачно+27°C23 %752 мм4.8 м/с2 %
    18:00Ясно и безоблачно+26°C25 %751 мм4.1 м/с2 %
    21:00Ясно и безоблачно+21°C38 %752 мм3.4 м/с2 %
  • 28мая
    Вторник
    +11°
    +26°
    Ясно и безоблачно
    ВремяПогодаТемператураВлажностьДавлениеВетер, м/сВероятность осадков
    00:00Ясно и безоблачно+17°C48 %752 мм5.2 м/с2 %
    03:00Ясно и безоблачно+14°C52 %753 мм4.7 м/с2 %
    06:00Ясно и безоблачно+14°C43 %754 мм5.2 м/с2 %
    09:00Ясно и безоблачно+20°C35 %754 мм5.7 м/с2 %
    12:00Ясно и безоблачно+25°C32 %754 мм5.6 м/с2 %
    15:00Ясно и безоблачно+26°C29 %753 мм5.2 м/с2 %
    18:00Ясно и безоблачно+25°C27 %752 мм5.4 м/с2 %
    21:00Ясно и безоблачно+19°C24 %753 мм5.0 м/с2 %
Мы используем cookies
Соглашаюсь